Flight Track Log - Related Links

Times and Time Zones

All times are in EDT time to prevent confusion due to time zone crossing. See the SWA3410 flight status page for this flight to view local times or setup timezone preferences in your user account.

Time Position Orientation Groundspeed Altitude Reporting Facility
EDT Latitude Longitude Course Direction KTS MPH feet Rate Location/Type
Mon 02:59:18 PM 42.9833 -71.4000 200° South 203 234 2,900  Level KA90
Mon 03:00:19 PM 43.0167 -71.3333 56° Northeast 260 299 5,200 2,700 Climbing KA90
Mon 03:02:00 PM 43.0391 -71.1218 56° Northeast  Level FlightAware Approximate
Mon 03:02:38 PM 43.0597 -71.1158 56° Northeast 304 350 11,900  Level Boston Center
Mon 03:04:00 PM 42.9440 -70.8885 202° Southwest  Level FlightAware Approximate
Mon 03:04:50 PM 42.9611 -70.8994 202° Southwest 311 358 18,600  Level Boston Center
Mon 03:05:00 PM 42.7102 -71.0035 200° South  Level FlightAware Approximate
Mon 03:06:00 PM 42.8332 -70.9501 196° South  Level FlightAware Approximate
Mon 03:08:50 PM 42.5197 -71.1106 247° West 414 476 25,600  Level Boston Center
Mon 03:09:50 PM 42.4144 -71.1914 210° Southwest 436 502 27,000 343 Climbing Boston Center
Mon 03:11:00 PM 42.3472 -71.3473 255° West  Level FlightAware Approximate
Mon 03:13:00 PM 42.2797 -71.5510 242° Southwest  Level FlightAware Approximate
Mon 03:14:00 PM 42.2456 -71.6971 247° West  Level FlightAware Approximate
Mon 03:15:50 PM 42.1167 -72.1350 221° Southwest 459 528 28,000  Level Boston Center
Mon 03:16:50 PM 42.0669 -72.2919 247° West 459 528 28,800 1,633 Climbing Boston Center
Mon 03:18:00 PM 42.0402 -72.3399 247° West  Level FlightAware Approximate
Mon 03:18:50 PM 41.9667 -72.5992 246° West 453 521 32,900  Level Boston Center
Mon 03:19:00 PM 41.9962 -72.4818 247° West  Level FlightAware Approximate
Mon 03:20:00 PM 41.9521 -72.6234 247° West  Level FlightAware Approximate
Mon 03:20:00 PM 41.8862 -72.7384 221° Southwest  Level FlightAware Approximate
Mon 03:21:00 PM 41.8837 -72.7413 221° Southwest  Level FlightAware Approximate
Mon 03:22:50 PM 41.6544 -73.0819 234° Southwest 443 510 38,000  Level Boston Center
Mon 03:23:50 PM 41.5683 -73.1947 224° Southwest 443 510 38,000  Level Boston Center
Mon 03:26:00 PM 41.4609 -73.3278 223° Southwest  Level FlightAware Approximate
Mon 03:27:00 PM 41.3211 -73.4939 226° Southwest  Level FlightAware Approximate
Mon 03:27:41 PM 41.2606 -73.6167 230° Southwest 433 498 38,000  Level New York Center
Mon 03:28:00 PM 41.2451 -73.6068 234° Southwest  Level FlightAware Approximate
Mon 03:28:41 PM 41.1889 -73.7406 232° Southwest 433 498 38,000  Level New York Center
Mon 03:29:42 PM 41.1169 -73.8639 232° Southwest 433 498 38,000  Level New York Center
Mon 03:31:43 PM 40.9642 -74.1208 232° Southwest 433 498 38,000  Level New York Center
Mon 03:33:00 PM 40.9431 -74.1321 230° Southwest  Level FlightAware Approximate
Mon 03:33:00 PM 40.8656 -74.2643 228° Southwest  Level FlightAware Approximate
Mon 03:35:44 PM 40.6747 -74.5908 227° Southwest 433 498 38,000  Level New York Center
Mon 03:36:42 PM 40.6019 -74.7125 232° Southwest 428 493 38,000  Level New York Center
Mon 03:38:00 PM 40.4993 -74.8536 226° Southwest  Level FlightAware Approximate
Mon 03:38:43 PM 40.4464 -74.9381 226° Southwest 428 493 38,000  Level New York Center
Mon 03:39:44 PM 40.3672 -75.0506 227° Southwest 428 493 38,000  Level New York Center
Mon 03:40:00 PM 40.3467 -75.0649 227° Southwest  Level FlightAware Approximate
Mon 03:40:43 PM 40.2861 -75.1625 226° Southwest 428 493 38,000  Level New York Center
Mon 03:41:00 PM 40.2686 -75.1741 227° Southwest  Level FlightAware Approximate
Mon 03:41:43 PM 40.2067 -75.2769 228° Southwest 428 493 38,000  Level New York Center
Mon 03:44:00 PM 40.0194 -75.5129 229° Southwest  Level FlightAware Approximate
Mon 03:46:43 PM 39.8103 -75.8514 234° Southwest 428 493 38,000  Level New York Center
Mon 03:48:00 PM 39.7144 -75.9955 229° Southwest  Level FlightAware Approximate
Mon 03:48:50 PM 39.6394 -76.1169 229° Southwest 428 493 38,000  Level Washington Center
Mon 03:49:51 PM 39.5681 -76.2269 230° Southwest 413 475 38,000  Level Washington Center
Mon 03:50:49 PM 39.4967 -76.3444 232° Southwest 413 475 38,000  Level Washington Center
Mon 03:51:00 PM 39.5035 -76.3063 228° Southwest  Level FlightAware Approximate
Mon 03:51:49 PM 39.4208 -76.4567 229° Southwest 420 483 38,000  Level Washington Center
Mon 03:52:00 PM 39.4297 -76.4189 234° Southwest  Level FlightAware Approximate
Mon 03:52:51 PM 39.3428 -76.5711 229° Southwest 427 491 38,000  Level Washington Center
Mon 03:54:00 PM 39.2605 -76.6969 230° Southwest  Level FlightAware Approximate
Mon 03:54:49 PM 39.1969 -76.8022 230° Southwest 427 491 38,400  Level Washington Center
Mon 03:55:50 PM 39.1228 -76.9158 230° Southwest 422 486 39,300 756 Climbing Washington Center
Mon 03:56:48 PM 39.0486 -77.0322 231° Southwest 427 491 39,900 353 Climbing Washington Center
Mon 03:57:49 PM 38.9597 -77.1292 220° Southwest 427 491 40,000 25 Climbing Washington Center
Mon 03:59:00 PM 38.8577 -77.2350 219° Southwest  Level FlightAware Approximate
Mon 04:00:51 PM 38.6908 -77.4242 221° Southwest 427 491 40,000  Level Washington Center
Mon 04:01:49 PM 38.6103 -77.5100 220° Southwest 427 491 40,000  Level Washington Center
Mon 04:03:00 PM 38.5092 -77.6170 220° Southwest  Level FlightAware Approximate
Mon 04:04:48 PM 38.3428 -77.8022 217° Southwest 422 486 40,000  Level Washington Center
Mon 04:05:49 PM 38.2533 -77.8975 220° Southwest 422 486 40,000  Level Washington Center
Mon 04:06:00 PM 38.2612 -77.8696 221° Southwest  Level FlightAware Approximate
Mon 04:06:50 PM 38.1681 -77.9925 221° Southwest 422 486 40,000  Level Washington Center
Mon 04:08:00 PM 38.0640 -78.0901 216° Southwest  Level FlightAware Approximate
Mon 04:09:48 PM 37.8908 -78.2731 217° Southwest 411 473 40,000  Level Washington Center
Mon 04:10:00 PM 37.9066 -78.2392 217° Southwest  Level FlightAware Approximate
Mon 04:11:00 PM 37.7629 -78.3191 196° South  Level Estimated
Mon 04:11:49 PM 37.7139 -78.4400 196° South 426 490 40,000  Level Washington Center
Mon 04:13:00 PM 37.6076 -78.5372 216° Southwest  Level FlightAware Approximate
Mon 04:14:49 PM 37.4386 -78.6992 217° Southwest 426 490 40,000  Level Washington Center
Mon 04:15:00 PM 37.4423 -78.6783 217° Southwest  Level FlightAware Approximate
Mon 04:16:00 PM 37.3116 -78.7402 194° South  Level Estimated
Mon 04:16:50 PM 37.2417 -78.8817 194° South 426 490 40,000  Level Washington Center
Mon 04:17:51 PM 37.1475 -78.9689 216° Southwest 426 490 40,000  Level Washington Center
Mon 04:18:48 PM 37.0511 -79.0556 216° Southwest 426 490 40,000  Level Washington Center
Mon 04:19:48 PM 36.9589 -79.1450 218° Southwest 426 490 40,000  Level Washington Center
Mon 04:20:00 PM 36.9795 -79.1097 217° Southwest  Level FlightAware Approximate
Mon 04:20:49 PM 36.8647 -79.2211 213° Southwest 426 490 40,000  Level Washington Center
Mon 04:23:00 PM 36.6694 -79.3995 216° Southwest  Level FlightAware Approximate
Mon 04:23:49 PM 36.5689 -79.4067 216° Southwest 415 478 40,000  Level Washington Center
Mon 04:25:00 PM 36.4707 -79.5148 222° Southwest  Level FlightAware Approximate
Mon 04:26:58 PM 36.2494 -79.6053 222° Southwest 410 472 40,000  Level Atlanta Center
Mon 04:27:58 PM 36.1369 -79.6733 206° Southwest 400 460 40,000  Level Atlanta Center
Mon 04:28:58 PM 36.0392 -79.7350 207° Southwest 395 455 40,000  Level Atlanta Center
Mon 04:29:58 PM 35.9369 -79.7969 206° Southwest 400 460 40,000  Level Atlanta Center
Mon 04:30:58 PM 35.8369 -79.8583 206° Southwest 400 460 40,000  Level Atlanta Center
Mon 04:32:58 PM 35.6253 -79.9586 201° Southwest 409 471 40,000  Level Atlanta Center
Mon 04:33:58 PM 35.5239 -79.9842 192° South 409 471 40,000  Level Atlanta Center
Mon 04:34:58 PM 35.4122 -80.0125 192° South 415 478 40,000  Level Atlanta Center
Mon 04:37:00 PM 35.2142 -80.1426 212° Southwest  Level FlightAware Approximate
Mon 04:43:38 PM 34.4161 -80.2625 207° Southwest 417 480 40,000  Level Jacksonville Center
Mon 04:44:00 PM 34.5404 -80.6312 207° Southwest  Level FlightAware Approximate
Mon 04:44:38 PM 34.3019 -80.2908 192° South 417 480 40,000  Level Jacksonville Center
Mon 04:45:00 PM 34.4403 -80.6924 207° Southwest  Level FlightAware Approximate
Mon 04:45:38 PM 34.1858 -80.3194 192° South 422 486 40,000  Level Jacksonville Center
Mon 04:46:00 PM 34.3402 -80.7534 207° Southwest  Level FlightAware Approximate
Mon 04:47:00 PM 34.2401 -80.8143 207° Southwest  Level FlightAware Approximate
Mon 04:47:00 PM 34.0344 -80.3471 189° South  Level Estimated
Mon 04:48:00 PM 34.1399 -80.8751 207° Southwest  Level FlightAware Approximate
Mon 04:51:38 PM 33.5025 -80.4864 189° South 427 491 40,000  Level Jacksonville Center
Mon 04:52:38 PM 33.3861 -80.5144 191° South 427 491 40,000  Level Jacksonville Center
Mon 04:53:38 PM 33.2719 -80.5422 191° South 427 491 40,000  Level Jacksonville Center
Mon 04:54:00 PM 33.2587 -80.4874 189° South  Level Estimated
Mon 04:55:00 PM 33.1478 -80.5073 189° South  Level Estimated
Mon 04:55:38 PM 33.0411 -80.5956 191° South 427 491 40,000  Level Jacksonville Center
Mon 04:56:00 PM 33.0370 -80.5271 189° South  Level Estimated
Mon 04:56:38 PM 32.9228 -80.6258 192° South 427 491 40,000  Level Jacksonville Center
Mon 04:57:00 PM 32.9262 -80.5468 189° South  Level Estimated
Mon 04:57:38 PM 32.8083 -80.6508 190° South 427 491 40,000  Level Jacksonville Center
Mon 04:58:38 PM 32.6900 -80.6783 191° South 432 497 40,000  Level Jacksonville Center
Mon 05:00:00 PM 32.5388 -80.7066 189° South  Level FlightAware Approximate
Mon 05:00:38 PM 32.4592 -80.7333 189° South 432 497 40,000  Level Jacksonville Center
Mon 05:02:00 PM 32.3086 -80.7658 190° South  Level FlightAware Approximate
Mon 05:02:38 PM 32.2156 -80.7733 190° South 426 490 40,000  Level Jacksonville Center
Mon 05:04:00 PM 32.0660 -80.8118 192° South  Level FlightAware Approximate
Mon 05:04:38 PM 31.9925 -80.7981 192° South 426 490 40,000  Level Jacksonville Center
Mon 05:05:38 PM 31.8636 -80.8158 187° South 420 483 40,000  Level Jacksonville Center
Mon 05:07:00 PM 31.7114 -80.8310 185° South  Level FlightAware Approximate
Mon 05:08:38 PM 31.5239 -80.8550 187° South 413 475 40,000  Level Jacksonville Center
Mon 05:09:38 PM 31.4175 -80.8672 186° South 419 482 40,000 -533 Level Jacksonville Center
Mon 05:11:00 PM 31.2647 -80.8762 185° South  Level FlightAware Approximate
Mon 05:11:38 PM 31.1758 -80.8967 185° South 421 484 38,400  Level Jacksonville Center
Mon 05:13:00 PM 31.0238 -80.9098 184° South  Level FlightAware Approximate
Mon 05:14:00 PM 30.9325 -80.9122 187° South  Level FlightAware Approximate
Mon 05:17:02 PM 30.5381 -80.9656 186° South 427 491 34,000  Level Jacksonville Center
Mon 05:18:02 PM 30.4211 -80.9750 184° South 427 491 33,300 -850 Descending Jacksonville Center
Mon 05:19:02 PM 30.2961 -80.9847 184° South 427 491 32,300 -1,000 Descending Jacksonville Center
Mon 05:20:00 PM 30.2487 -81.0015 184° South  Level FlightAware Approximate
Mon 05:21:00 PM 30.1374 -81.0108 184° South  Level FlightAware Approximate
Mon 05:21:02 PM 30.0542 -81.0064 184° South 446 513 30,300  Level Jacksonville Center
Mon 05:22:00 PM 30.0263 -81.0212 186° South  Level FlightAware Approximate
Mon 05:22:02 PM 29.9353 -81.0158 184° South 441 507 29,300  Level Jacksonville Center
Mon 05:23:02 PM 29.8164 -81.0253 184° South 434 499 28,100 -1,800 Descending Jacksonville Center
Mon 05:24:02 PM 29.7039 -81.0369 185° South 423 487 25,700 -2,167 Descending Jacksonville Center
Mon 05:26:02 PM 29.5039 -81.0528 184° South 397 457 21,600 -2,094 Descending Jacksonville Center
Mon 05:27:14 PM 29.3808 -81.0600 183° South 374 430 19,000 -2,136 Descending Jacksonville Center
Mon 05:28:14 PM 29.2869 -81.0711 186° South 361 415 16,900 -2,100 Descending Jacksonville Center
Mon 05:29:14 PM 29.1911 -81.0778 183° South 348 400 14,800 -1,633 Descending Jacksonville Center
Mon 05:31:14 PM 29.0181 -81.0903 184° South 328 377 12,000 -1,300 Descending Jacksonville Center
Mon 05:32:14 PM 28.9386 -81.0775 172° South 306 352 10,900 -1,300 Descending Jacksonville Center
Mon 05:33:14 PM 28.8589 -81.0672 174° South 294 338 9,400 -1,500 Descending Jacksonville Center
Mon 05:34:14 PM 28.7989 -81.1039 208° Southwest 251 289 7,900 -1,436 Descending Jacksonville Center
Mon 05:35:11 PM 28.7333 -81.1500 212° Southwest 246 283 6,600 -1,436 Descending Orlando TRACON
Mon 05:36:11 PM 28.6833 -81.1833 210° Southwest 245 282 5,100 -1,286 Descending Orlando TRACON
Mon 05:37:17 PM 28.6333 -81.2333 221° Southwest 224 258 3,900 -1,018 Descending Orlando TRACON
Mon 05:39:02 PM 28.5511 -81.2856 209° Southwest 207 238 2,200 -1,041 Descending Jacksonville Center
Mon 05:39:18 PM 28.5333 -81.2833 174° South 186 214 1,800 -878 Descending Orlando TRACON
Mon 05:40:24 PM 28.4833 -81.3000 196° South 155 178 1,000 -700 Descending Orlando TRACON
Mon 05:41:18 PM 28.4500 -81.3000 180° South 145 167 400 -667 Descending Orlando TRACON
Mon 05:43:00 PM 28.4294 -81.3090 336° Northwest  Level Estimated
Mon 05:50:00 PM 28.4294 -81.3090 336° Northwest  Level Estimated
Mon 05:51:00 PM 28.4294 -81.3090 336° Northwest  Level Estimated
Mon 05:52:00 PM 28.4294 -81.3090 336° Northwest  Level Estimated

Login

Don't have an account? Register now (free) for customized features, flight alerts, and more!